• Join FlightAware (Why Join?)
  • Login
  • US Flag 
08:09AM EST


 

Airport Tracker/Info


-or-


 

Live Flight TrackerFlight Track Log ✈ RPA3321 ✈ 26-Jun-2013 ✈ KALB - KDCA

Flight Track Log - Related Links

Times and Time Zones

All times are in EDT time to prevent confusion due to time zone crossing. See the RPA3321 flight status page for this flight to view local times or setup timezone preferences in your user account.

Time Position Orientation Groundspeed Altitude Reporting Facility
EDT Latitude Longitude Course Direction KTS MPH feet Rate Location/Type
05:43AM 42.7819 -73.8064 169° South 160 184 1,900  Level Boston Center
05:44AM 42.8381 -73.8133 355° North 217 250 3,800 2,340 Climbing Boston Center
05:45AM 42.5038 -74.0197 171° South  Level Estimated
05:45AM 42.8936 -73.8742 321° Northwest 278 320 6,900  Level Boston Center
05:46AM 42.4220 -74.0918 180° South  Level Estimated
05:46AM 42.9508 -73.9547 314° West 278 320 9,700  Level Boston Center
05:47AM 42.3401 -74.1638 170° South  Level Estimated
05:47AM 42.9914 -74.0381 304° West 283 326 11,300  Level Boston Center
05:48AM 42.2581 -74.2356 169° South  Level Estimated
05:48AM 42.9278 -74.1131 221° Southwest 223 257 14,100  Level Boston Center
05:49AM 42.8389 -74.0767 163° South 267 307 16,300 2,280 Climbing Boston Center
05:50AM 42.7414 -74.0317 161° South 322 371 18,700 1,980 Climbing Boston Center
05:51AM 42.6525 -73.9928 162° South 348 400 20,300 1,740 Climbing Boston Center
05:52AM 42.5406 -73.9447 162° South 365 420 22,200 1,740 Climbing Boston Center
05:53AM 42.4369 -73.8972 161° South 384 442 23,800 1,500 Climbing Boston Center
05:54AM 42.3269 -73.8497 162° South 398 458 25,300 1,320 Climbing Boston Center
05:55AM 42.2172 -73.7997 161° South 410 472 26,500 1,260 Climbing Boston Center
05:56AM 42.1053 -73.7553 164° South 416 479 27,900 1,200 Climbing Boston Center
05:57AM 41.9922 -73.7864 192° South 408 470 29,000 1,080 Climbing Boston Center
05:58AM 41.8853 -73.8456 202° Southwest 401 461 30,100 900 Climbing Boston Center
06:00AM 41.6831 -73.9486 201° Southwest 414 476 31,700 600 Climbing New York Center
06:01AM 41.5733 -74.0044 201° Southwest 420 483 32,000 120 Climbing New York Center
06:02AM 41.4614 -74.0653 202° Southwest 423 487 32,000  Level New York Center
06:03AM 41.3494 -74.1206 200° South 423 487 32,000  Level New York Center
06:04AM 41.2394 -74.1786 202° Southwest 429 494 32,000  Level New York Center
06:05AM 41.1108 -74.2353 198° South 436 502 32,000 -360 Level New York Center
06:06AM 41.0006 -74.2958 203° Southwest 442 509 31,400 -1,320 Descending New York Center
06:07AM 40.8886 -74.3503 200° South 437 503 29,500 -1,680 Descending New York Center
06:08AM 40.7964 -74.4333 214° Southwest 411 473 28,000 -780 Descending New York Center
06:09AM 40.7203 -74.5414 227° Southwest 411 473 28,000  Level New York Center
06:10AM 40.6478 -74.6494 229° Southwest 406 467 28,000  Level New York Center
06:11AM 40.5711 -74.7628 228° Southwest 406 467 28,000  Level New York Center
06:12AM 40.5014 -74.8569 226° Southwest 406 467 28,000  Level New York Center
06:13AM 40.4289 -74.9644 228° Southwest 411 473 28,000  Level New York Center
06:14AM 40.3519 -75.0686 226° Southwest 405 466 28,000  Level New York Center
06:15AM 40.2772 -75.1756 228° Southwest 405 466 28,000 -120 Level New York Center
06:16AM 40.2022 -75.2822 227° Southwest 405 466 27,800 -1,380 Descending New York Center
06:17AM 40.1275 -75.3858 227° Southwest 405 466 25,300 -2,580 Descending New York Center
06:18AM 40.0525 -75.4894 227° Southwest 400 460 22,700 -1,680 Descending New York Center
06:19AM 39.9839 -75.5850 227° Southwest 388 447 22,000 -360 Descending New York Center
06:20AM 39.9175 -75.6806 228° Southwest 375 432 22,000 -480 Level New York Center
06:21AM 39.8569 -75.7819 232° Southwest 370 426 21,100 -960 Descending New York Center
06:22AM 39.7944 -75.8800 230° Southwest 364 419 20,100 -1,140 Descending New York Center
06:23AM 39.7319 -75.9700 228° Southwest 359 413 18,900 -1,380 Descending New York Center
06:24AM 39.6714 -76.0681 231° Southwest 354 407 17,400 -1,500 Descending New York Center
06:26AM 39.5500 -76.2667 232° Southwest 314 361 14,500 -1,500 Descending Potomac TRACON
06:27AM 39.5000 -76.3500 232° Southwest 309 356 13,100 -1,260 Descending Potomac TRACON
06:28AM 39.4500 -76.4167 226° Southwest 308 354 12,200 -960 Descending Potomac TRACON
06:29AM 39.3833 -76.4833 218° Southwest 305 351 11,300 -900 Descending Potomac TRACON
06:30AM 39.3167 -76.5500 218° Southwest 301 346 10,500 -720 Descending Potomac TRACON
06:31AM 39.2500 -76.6000 210° Southwest 292 336 10,000 -300 Descending Potomac TRACON
06:32AM 39.1833 -76.6500 210° Southwest 275 316 10,000  Level Potomac TRACON
06:33AM 39.1333 -76.7167 226° Southwest 276 318 10,000 -240 Level Potomac TRACON
06:34AM 39.0667 -76.7833 218° Southwest 277 319 9,600 -720 Descending Potomac TRACON
06:35AM 39.0167 -76.8333 218° Southwest 275 316 8,700 -1,020 Descending Potomac TRACON
06:36AM 38.9667 -76.9000 226° Southwest 268 308 7,700 -1,020 Descending Potomac TRACON
06:37AM 38.9000 -76.9500 210° Southwest 269 310 6,700 -1,140 Descending Potomac TRACON
06:38AM 38.8333 -76.9500 180° South 273 314 5,500 -1,380 Descending Potomac TRACON
06:39AM 38.7667 -76.9500 180° South 247 284 4,000 -1,500 Descending Potomac TRACON